createdAt,value
2023-03-17T00:00:16.769Z,16.60
2023-03-17T00:02:45.938Z,16.60
2023-03-17T00:05:20.748Z,16.60
2023-03-17T00:07:47.689Z,16.50
2023-03-17T00:10:15.693Z,16.50
2023-03-17T00:12:42.506Z,16.50
2023-03-17T00:15:10.110Z,16.50
2023-03-17T00:17:37.063Z,16.50
2023-03-17T00:20:05.465Z,16.50
2023-03-17T00:22:32.011Z,16.50
2023-03-17T00:24:58.858Z,16.50
2023-03-17T00:27:25.456Z,16.50
2023-03-17T00:29:52.023Z,16.50
2023-03-17T00:32:20.595Z,16.50
2023-03-17T00:34:47.254Z,16.50
2023-03-17T00:37:13.838Z,16.50
2023-03-17T00:39:40.401Z,16.60
2023-03-17T00:42:07.288Z,16.60
2023-03-17T00:44:34.546Z,16.70
2023-03-17T00:47:01.902Z,16.70
2023-03-17T00:49:28.610Z,16.40
2023-03-17T00:51:55.359Z,16.70
2023-03-17T00:54:22.307Z,16.70
2023-03-17T00:56:49.472Z,16.70
2023-03-17T00:59:20.671Z,16.70
2023-03-17T01:01:47.871Z,16.70
2023-03-17T01:04:15.625Z,16.60
2023-03-17T01:06:43.228Z,16.60
2023-03-17T01:09:12.933Z,16.60
2023-03-17T01:11:39.502Z,16.60
2023-03-17T01:14:06.665Z,16.60
2023-03-17T01:16:33.300Z,16.60
2023-03-17T01:19:00.025Z,16.50
2023-03-17T01:21:26.699Z,16.60
2023-03-17T01:23:53.556Z,16.60
2023-03-17T01:26:20.094Z,16.60
2023-03-17T01:28:46.635Z,16.60
2023-03-17T01:31:13.521Z,16.60
2023-03-17T01:33:40.636Z,16.60
2023-03-17T01:36:07.587Z,16.80
2023-03-17T01:38:34.239Z,16.60
2023-03-17T01:41:01.263Z,16.50
2023-03-17T01:43:29.530Z,16.50
2023-03-17T01:46:14.830Z,16.50
2023-03-17T01:48:47.443Z,16.50
2023-03-17T01:51:32.489Z,16.50
2023-03-17T01:54:01.095Z,16.50
2023-03-17T01:56:28.934Z,16.50
2023-03-17T01:58:56.734Z,16.50
2023-03-17T02:01:26.011Z,16.40
2023-03-17T02:03:53.508Z,16.50
2023-03-17T02:06:20.109Z,16.50
2023-03-17T02:08:46.683Z,16.50
2023-03-17T02:11:13.278Z,16.50
2023-03-17T02:13:41.837Z,16.40
2023-03-17T02:16:13.504Z,16.50
2023-03-17T02:18:40.082Z,16.60
2023-03-17T02:21:21.939Z,16.50
2023-03-17T02:23:48.523Z,16.50
2023-03-17T02:26:15.094Z,16.50
2023-03-17T02:28:41.670Z,16.50
2023-03-17T02:31:09.432Z,16.50
2023-03-17T02:33:36.052Z,16.50
2023-03-17T02:36:03.165Z,16.50
2023-03-17T02:38:29.715Z,16.60
2023-03-17T02:40:56.438Z,16.60
2023-03-17T02:43:23.007Z,16.60
2023-03-17T02:45:49.582Z,16.60
2023-03-17T02:48:16.218Z,16.60
2023-03-17T02:50:42.784Z,16.60
2023-03-17T02:53:09.374Z,16.50
2023-03-17T02:55:36.159Z,16.50
2023-03-17T02:58:03.471Z,16.50
2023-03-17T03:00:30.320Z,16.50
2023-03-17T03:02:57.228Z,16.50
2023-03-17T03:05:23.819Z,16.50
2023-03-17T03:07:51.405Z,16.50
2023-03-17T03:10:18.882Z,16.50
2023-03-17T03:12:46.296Z,16.50
2023-03-17T03:15:13.447Z,16.50
2023-03-17T03:17:40.058Z,16.50
2023-03-17T03:20:07.256Z,16.50
2023-03-17T03:22:33.806Z,16.40
2023-03-17T03:25:01.148Z,16.50
2023-03-17T03:27:27.741Z,16.50
2023-03-17T03:29:54.284Z,16.50
2023-03-17T03:32:20.830Z,16.50
2023-03-17T03:34:47.418Z,16.40
2023-03-17T03:37:13.985Z,16.40
2023-03-17T03:39:40.529Z,16.40
2023-03-17T03:42:07.334Z,16.40
2023-03-17T03:44:33.907Z,16.40
2023-03-17T03:47:00.666Z,16.40
2023-03-17T03:49:27.314Z,16.50
2023-03-17T03:51:53.899Z,16.50
2023-03-17T03:54:20.492Z,16.40
2023-03-17T03:56:47.154Z,16.40
2023-03-17T03:59:15.031Z,16.40
2023-03-17T04:01:41.646Z,16.40
2023-03-17T04:04:08.244Z,16.40
2023-03-17T04:06:34.825Z,16.40
2023-03-17T04:09:01.382Z,16.40
2023-03-17T04:11:27.982Z,16.40
2023-03-17T04:13:54.560Z,16.40
2023-03-17T04:16:21.187Z,16.40
2023-03-17T04:18:47.820Z,16.40
2023-03-17T04:21:18.350Z,16.50
2023-03-17T04:23:45.916Z,16.50
2023-03-17T04:26:13.515Z,16.50
2023-03-17T04:28:40.391Z,16.60
2023-03-17T04:31:07.666Z,16.60
2023-03-17T04:33:34.323Z,16.60
2023-03-17T04:36:01.221Z,16.60
2023-03-17T04:38:27.846Z,16.60
2023-03-17T04:40:54.508Z,16.60
2023-03-17T04:43:21.112Z,16.60
2023-03-17T04:45:47.721Z,16.60
2023-03-17T04:48:14.412Z,16.60
2023-03-17T04:50:42.325Z,16.50
2023-03-17T04:53:09.142Z,16.50
2023-03-17T04:55:36.030Z,16.50
2023-03-17T04:58:02.593Z,16.50
2023-03-17T05:00:29.755Z,16.50
2023-03-17T05:02:56.446Z,16.50
2023-03-17T05:05:23.017Z,16.50
2023-03-17T05:07:49.568Z,16.50
2023-03-17T05:10:16.271Z,16.50
2023-03-17T05:12:42.873Z,16.50
2023-03-17T05:15:10.031Z,16.50
2023-03-17T05:17:36.767Z,16.50
2023-03-17T05:20:04.248Z,16.50
2023-03-17T05:22:31.384Z,16.50
2023-03-17T05:24:57.920Z,16.50
2023-03-17T05:27:24.567Z,16.50
2023-03-17T05:29:51.179Z,16.50
2023-03-17T05:32:18.331Z,16.50
2023-03-17T05:34:45.152Z,16.40
2023-03-17T05:37:11.779Z,16.40
2023-03-17T05:39:38.394Z,16.40
2023-03-17T05:42:05.011Z,16.40
2023-03-17T05:44:31.766Z,16.40
2023-03-17T05:46:59.719Z,16.40
2023-03-17T05:49:29.582Z,16.40
2023-03-17T05:51:56.266Z,16.50
2023-03-17T05:54:24.051Z,16.50
2023-03-17T05:56:50.618Z,16.50
2023-03-17T05:59:18.384Z,16.50
2023-03-17T06:01:45.035Z,16.60
2023-03-17T06:04:11.887Z,16.60
2023-03-17T06:06:41.060Z,16.60
2023-03-17T06:09:08.399Z,16.60
2023-03-17T06:11:34.952Z,16.60
2023-03-17T06:14:02.056Z,16.60
2023-03-17T06:16:31.169Z,16.60
2023-03-17T06:18:57.866Z,16.60
2023-03-17T06:21:24.892Z,16.60
2023-03-17T06:23:51.459Z,16.50
2023-03-17T06:26:18.010Z,16.60
2023-03-17T06:28:44.588Z,16.50
2023-03-17T06:31:14.296Z,16.50
2023-03-17T06:33:41.502Z,16.30
2023-03-17T06:36:08.825Z,16.60
2023-03-17T06:38:35.819Z,16.30
2023-03-17T06:41:03.353Z,16.40
2023-03-17T06:43:29.898Z,16.30
2023-03-17T06:45:56.478Z,16.80
2023-03-17T06:48:23.595Z,16.30
2023-03-17T06:50:52.027Z,16.30
2023-03-17T06:53:18.594Z,16.30
2023-03-17T06:55:50.042Z,16.30
2023-03-17T06:58:16.993Z,16.30
2023-03-17T07:00:45.483Z,16.40
2023-03-17T07:03:12.265Z,16.30
2023-03-17T07:05:39.438Z,16.30
2023-03-17T07:08:06.381Z,16.30
2023-03-17T07:10:33.256Z,16.30
2023-03-17T07:12:59.853Z,16.40
2023-03-17T07:15:26.457Z,16.30
2023-03-17T07:17:54.199Z,16.40
2023-03-17T07:20:21.235Z,16.40
2023-03-17T07:22:47.860Z,16.40
2023-03-17T07:25:14.537Z,16.30
2023-03-17T07:27:41.376Z,16.30
2023-03-17T07:30:08.805Z,16.40
2023-03-17T07:32:36.230Z,16.40
2023-03-17T07:35:04.759Z,16.50
2023-03-17T07:37:31.639Z,16.50
2023-03-17T07:39:58.223Z,16.50
2023-03-17T07:42:25.083Z,16.60
2023-03-17T07:44:51.656Z,16.60
2023-03-17T07:47:18.252Z,16.60
2023-03-17T07:49:45.169Z,16.70
2023-03-17T07:52:12.656Z,16.70
2023-03-17T07:54:42.712Z,16.70
2023-03-17T07:57:09.900Z,16.60
2023-03-17T07:59:37.060Z,16.70
2023-03-17T08:02:04.481Z,16.60
2023-03-17T08:04:31.298Z,16.60
2023-03-17T08:06:57.959Z,16.60
2023-03-17T08:09:25.045Z,16.30
2023-03-17T08:11:51.654Z,16.80
2023-03-17T08:14:18.214Z,16.60
2023-03-17T08:16:44.885Z,16.60
2023-03-17T08:19:11.771Z,16.60
2023-03-17T08:21:38.411Z,16.60
2023-03-17T08:24:05.279Z,16.60
2023-03-17T08:26:32.317Z,16.60
2023-03-17T08:28:59.072Z,16.60
2023-03-17T08:31:25.816Z,16.60
2023-03-17T08:33:54.176Z,16.60
2023-03-17T08:36:21.168Z,16.60
2023-03-17T08:38:48.094Z,16.60
2023-03-17T08:41:16.624Z,16.60
2023-03-17T08:43:44.091Z,16.60
2023-03-17T08:46:27.606Z,16.60
2023-03-17T08:48:56.314Z,16.50
2023-03-17T08:51:24.720Z,16.70
2023-03-17T08:53:51.921Z,16.50
2023-03-17T08:56:18.599Z,16.60
2023-03-17T08:58:45.818Z,16.60
2023-03-17T09:01:12.890Z,16.60
2023-03-17T09:03:40.804Z,16.60
2023-03-17T09:06:08.381Z,16.60
2023-03-17T09:08:37.600Z,16.50
2023-03-17T09:11:05.467Z,16.50
2023-03-17T09:13:33.295Z,16.50
2023-03-17T09:16:01.473Z,16.50
2023-03-17T09:18:28.195Z,16.50
2023-03-17T09:20:55.231Z,16.50
2023-03-17T09:23:23.311Z,16.50
2023-03-17T09:25:50.133Z,16.50
2023-03-17T09:28:17.400Z,16.60
2023-03-17T09:30:44.419Z,16.70
2023-03-17T09:33:12.046Z,16.30
2023-03-17T09:35:40.004Z,16.70
2023-03-17T09:38:07.382Z,16.80
2023-03-17T09:40:37.188Z,16.80
2023-03-17T09:43:24.782Z,17.40
2023-03-17T09:45:51.482Z,16.70
2023-03-17T09:48:36.871Z,17.00
2023-03-17T09:51:06.836Z,16.70
2023-03-17T09:53:35.987Z,16.70
2023-03-17T09:56:06.859Z,16.70
2023-03-17T09:58:34.841Z,16.60
2023-03-17T10:01:02.075Z,16.70
2023-03-17T10:03:28.697Z,16.60
2023-03-17T10:05:59.591Z,16.60
2023-03-17T10:08:31.945Z,16.60
2023-03-17T10:11:16.228Z,16.60
2023-03-17T10:13:42.846Z,16.60
2023-03-17T10:16:14.473Z,16.80
2023-03-17T10:18:44.819Z,16.60
2023-03-17T10:21:13.688Z,16.60
2023-03-17T10:23:40.517Z,16.60
2023-03-17T10:26:09.610Z,16.60
2023-03-17T10:28:38.773Z,16.70
2023-03-17T10:31:16.715Z,16.60
2023-03-17T10:33:50.442Z,16.60
2023-03-17T10:36:18.036Z,16.70
2023-03-17T10:38:51.911Z,16.80
2023-03-17T10:41:18.525Z,16.70
2023-03-17T10:43:50.699Z,16.70
2023-03-17T10:46:18.964Z,16.70
2023-03-17T10:48:50.455Z,16.70
2023-03-17T10:51:21.632Z,16.70
2023-03-17T10:53:52.721Z,16.80
2023-03-17T10:56:24.995Z,16.70
2023-03-17T10:58:52.649Z,16.70
2023-03-17T11:01:42.693Z,16.70
2023-03-17T11:04:28.148Z,16.70
2023-03-17T11:06:59.060Z,16.70
2023-03-17T11:09:28.120Z,16.70
2023-03-17T11:12:02.923Z,16.70
2023-03-17T11:14:30.341Z,16.70
2023-03-17T11:16:59.030Z,16.70
2023-03-17T11:19:37.836Z,16.70
2023-03-17T11:22:07.392Z,16.70
2023-03-17T11:24:41.480Z,16.70
2023-03-17T11:27:17.254Z,16.70
2023-03-17T11:29:53.130Z,16.70
2023-03-17T11:32:22.806Z,16.70
2023-03-17T11:34:57.184Z,16.80
2023-03-17T11:37:29.486Z,16.80
2023-03-17T11:40:07.735Z,16.90
2023-03-17T11:42:40.317Z,16.90
2023-03-17T11:45:06.879Z,17.00
2023-03-17T11:47:44.030Z,16.90
2023-03-17T11:50:30.056Z,16.80
2023-03-17T11:52:58.577Z,16.90
2023-03-17T11:55:28.816Z,16.90
2023-03-17T11:57:57.439Z,16.90
2023-03-17T12:00:36.603Z,17.00
2023-03-17T12:03:11.295Z,16.90
2023-03-17T12:05:38.628Z,16.90
2023-03-17T12:08:09.720Z,16.90
2023-03-17T12:10:42.019Z,16.90
2023-03-17T12:13:21.068Z,16.90
2023-03-17T12:15:56.869Z,16.90
2023-03-17T12:18:26.868Z,16.90
2023-03-17T12:21:12.136Z,16.90
2023-03-17T12:23:38.767Z,16.90
2023-03-17T12:26:07.770Z,16.90
2023-03-17T12:28:38.770Z,16.90
2023-03-17T12:31:12.497Z,16.90
2023-03-17T12:33:50.810Z,16.90
2023-03-17T12:36:17.868Z,16.90
2023-03-17T12:38:51.020Z,16.90
2023-03-17T12:41:20.352Z,16.80
2023-03-17T12:43:53.796Z,16.90
2023-03-17T12:46:34.328Z,16.90
2023-03-17T12:49:18.676Z,16.90
2023-03-17T12:51:54.509Z,16.90
2023-03-17T12:54:27.021Z,16.90
2023-03-17T12:57:00.158Z,16.80
2023-03-17T12:59:27.936Z,16.90
2023-03-17T13:01:57.486Z,16.90
2023-03-17T13:04:27.164Z,17.00
2023-03-17T13:06:54.848Z,17.00
2023-03-17T13:09:36.529Z,17.00
2023-03-17T13:12:04.864Z,17.10
2023-03-17T13:14:45.866Z,17.10
2023-03-17T13:17:19.821Z,17.20
2023-03-17T13:19:57.582Z,17.20
2023-03-17T13:22:32.625Z,17.10
2023-03-17T13:25:12.810Z,17.30
2023-03-17T13:27:39.879Z,17.20
2023-03-17T13:30:27.582Z,17.30
2023-03-17T13:33:03.032Z,17.40
2023-03-17T13:35:44.886Z,17.20
2023-03-17T13:38:12.905Z,17.20
2023-03-17T13:40:46.116Z,17.20
2023-03-17T13:43:28.176Z,17.10
2023-03-17T13:45:56.037Z,17.00
2023-03-17T13:48:36.401Z,16.90
2023-03-17T13:51:03.215Z,16.80
2023-03-17T13:53:35.392Z,16.80
2023-03-17T13:56:21.645Z,16.00
2023-03-17T13:59:11.475Z,17.20
2023-03-17T14:01:44.891Z,16.80
2023-03-17T14:04:22.408Z,16.80
2023-03-17T14:06:51.555Z,16.90
2023-03-17T14:09:32.352Z,16.90
2023-03-17T14:12:02.021Z,16.90
2023-03-17T14:14:36.562Z,17.30
2023-03-17T14:17:19.150Z,16.90
2023-03-17T14:20:06.420Z,16.90
2023-03-17T14:22:33.200Z,16.90
2023-03-17T14:25:01.610Z,17.40
2023-03-17T14:27:30.149Z,16.90
2023-03-17T14:29:56.804Z,16.90
2023-03-17T14:32:24.207Z,17.00
2023-03-17T14:34:55.641Z,17.00
2023-03-17T14:37:22.852Z,17.20
2023-03-17T14:39:53.885Z,17.30
2023-03-17T14:42:25.825Z,17.40
2023-03-17T14:45:00.340Z,17.50
2023-03-17T14:47:31.698Z,17.70
2023-03-17T14:49:58.336Z,17.90
2023-03-17T14:52:27.296Z,17.80
2023-03-17T14:54:55.358Z,17.90
2023-03-17T14:57:32.406Z,17.70
2023-03-17T15:00:15.144Z,17.60
2023-03-17T15:02:44.186Z,17.50
2023-03-17T15:05:29.158Z,17.40
2023-03-17T15:07:56.620Z,17.30
2023-03-17T15:10:31.248Z,17.30
2023-03-17T15:13:01.719Z,17.30
2023-03-17T15:15:32.570Z,17.30
2023-03-17T15:18:01.079Z,17.20
2023-03-17T15:20:28.818Z,17.20
2023-03-17T15:22:57.456Z,17.20
2023-03-17T15:25:41.837Z,17.10
2023-03-17T15:28:18.303Z,17.10
2023-03-17T15:30:48.110Z,17.00
2023-03-17T15:33:22.429Z,17.00
2023-03-17T15:35:49.538Z,17.00
2023-03-17T15:38:16.670Z,17.00
2023-03-17T15:40:43.323Z,16.90
2023-03-17T15:43:16.911Z,16.80
2023-03-17T15:45:45.056Z,16.90
2023-03-17T15:48:24.865Z,16.90
2023-03-17T15:50:52.298Z,17.20
2023-03-17T15:53:19.117Z,16.90
2023-03-17T15:55:48.256Z,17.20
2023-03-17T15:58:15.349Z,17.00
2023-03-17T16:00:42.366Z,17.10
2023-03-17T16:03:12.984Z,17.10
2023-03-17T16:05:39.665Z,17.10
2023-03-17T16:08:06.829Z,17.20
2023-03-17T16:10:33.891Z,17.20
2023-03-17T16:13:00.606Z,17.30
2023-03-17T16:15:31.699Z,17.40
2023-03-17T16:17:59.701Z,17.20
2023-03-17T16:20:35.428Z,17.20
2023-03-17T16:23:06.368Z,17.30
2023-03-17T16:25:33.063Z,17.50
2023-03-17T16:28:01.560Z,17.10
2023-03-17T16:30:33.216Z,17.50
2023-03-17T16:33:09.089Z,17.50
2023-03-17T16:35:36.118Z,17.60
2023-03-17T16:38:02.698Z,17.50
2023-03-17T16:40:34.505Z,17.40
2023-03-17T16:43:08.280Z,17.30
2023-03-17T16:45:39.555Z,17.30
2023-03-17T16:48:06.118Z,17.20
2023-03-17T16:50:33.714Z,17.10
2023-03-17T16:53:00.598Z,17.10
2023-03-17T16:55:28.649Z,17.10
2023-03-17T16:57:56.942Z,17.20
2023-03-17T17:00:25.147Z,17.00
2023-03-17T17:02:52.220Z,17.00
2023-03-17T17:05:23.388Z,17.00
2023-03-17T17:07:50.765Z,17.00
2023-03-17T17:10:18.541Z,16.90
2023-03-17T17:12:45.368Z,16.90
2023-03-17T17:15:12.994Z,16.90
2023-03-17T17:17:41.103Z,16.90
2023-03-17T17:20:18.190Z,16.90
2023-03-17T17:22:44.849Z,16.90
2023-03-17T17:25:12.252Z,16.90
2023-03-17T17:27:39.987Z,17.00
2023-03-17T17:30:07.402Z,17.20
2023-03-17T17:32:34.341Z,17.00
2023-03-17T17:35:00.940Z,17.10
2023-03-17T17:37:27.766Z,17.10
2023-03-17T17:39:54.313Z,17.10
2023-03-17T17:42:20.946Z,17.10
2023-03-17T17:44:47.955Z,17.20
2023-03-17T17:47:14.920Z,17.30
2023-03-17T17:49:43.188Z,17.20
2023-03-17T17:52:10.003Z,17.30
2023-03-17T17:54:36.654Z,17.30
2023-03-17T17:57:03.659Z,17.30
2023-03-17T17:59:30.521Z,17.30
2023-03-17T18:01:57.097Z,17.30
2023-03-17T18:04:23.700Z,17.30
2023-03-17T18:06:50.339Z,17.30
2023-03-17T18:09:18.181Z,17.20
2023-03-17T18:11:44.794Z,17.30
2023-03-17T18:14:11.410Z,17.20
2023-03-17T18:16:38.167Z,17.20
2023-03-17T18:19:06.093Z,17.20
2023-03-17T18:21:33.075Z,17.20
2023-03-17T18:23:59.706Z,17.10
2023-03-17T18:26:26.490Z,17.20
2023-03-17T18:28:53.073Z,17.20
2023-03-17T18:31:21.615Z,17.10
2023-03-17T18:33:49.219Z,17.10
2023-03-17T18:36:16.187Z,17.10
2023-03-17T18:38:42.778Z,17.30
2023-03-17T18:41:11.046Z,17.10
2023-03-17T18:43:38.230Z,17.10
2023-03-17T18:46:04.952Z,17.10
2023-03-17T18:48:31.638Z,17.10
2023-03-17T18:50:58.228Z,17.00
2023-03-17T18:53:24.835Z,17.10
2023-03-17T18:55:51.405Z,17.10
2023-03-17T18:58:17.979Z,17.10
2023-03-17T19:00:44.524Z,17.10
2023-03-17T19:03:11.211Z,17.00
2023-03-17T19:05:38.391Z,17.00
2023-03-17T19:08:05.115Z,17.10
2023-03-17T19:10:31.925Z,17.00
2023-03-17T19:12:59.271Z,17.00
2023-03-17T19:15:26.058Z,17.00
2023-03-17T19:17:52.962Z,17.00
2023-03-17T19:20:20.030Z,17.00
2023-03-17T19:22:46.614Z,17.10
2023-03-17T19:25:13.217Z,17.10
2023-03-17T19:27:40.473Z,17.00
2023-03-17T19:30:07.309Z,17.00
2023-03-17T19:32:33.895Z,17.10
2023-03-17T19:35:00.717Z,17.10
2023-03-17T19:37:27.429Z,17.10
2023-03-17T19:39:54.044Z,17.20
2023-03-17T19:42:21.058Z,17.20
2023-03-17T19:44:47.891Z,17.20
2023-03-17T19:47:14.458Z,17.10
2023-03-17T19:49:41.828Z,17.10
2023-03-17T19:52:09.565Z,17.10
2023-03-17T19:54:38.100Z,16.90
2023-03-17T19:57:05.166Z,17.10
2023-03-17T19:59:31.755Z,17.00
2023-03-17T20:01:58.612Z,17.00
2023-03-17T20:04:25.295Z,17.00
2023-03-17T20:06:55.444Z,17.00
2023-03-17T20:09:22.896Z,17.00
2023-03-17T20:11:49.521Z,17.00
2023-03-17T20:14:16.346Z,17.10
2023-03-17T20:16:42.895Z,17.00
2023-03-17T20:19:09.437Z,17.00
2023-03-17T20:21:37.274Z,17.00
2023-03-17T20:24:03.910Z,17.00
2023-03-17T20:26:30.455Z,17.00
2023-03-17T20:28:56.985Z,17.00
2023-03-17T20:31:23.647Z,17.00
2023-03-17T20:33:50.481Z,17.00
2023-03-17T20:36:17.129Z,16.90
2023-03-17T20:38:43.862Z,16.90
2023-03-17T20:41:15.004Z,17.00
2023-03-17T20:43:41.866Z,17.00
2023-03-17T20:46:09.446Z,17.10
2023-03-17T20:48:37.055Z,17.00
2023-03-17T20:51:06.332Z,17.00
2023-03-17T20:53:34.303Z,17.00
2023-03-17T20:56:00.989Z,17.00
2023-03-17T20:58:27.709Z,17.00
2023-03-17T21:00:54.990Z,17.00
2023-03-17T21:03:21.773Z,17.20
2023-03-17T21:05:48.367Z,17.00
2023-03-17T21:08:14.966Z,17.00
2023-03-17T21:10:41.651Z,17.10
2023-03-17T21:13:08.877Z,17.10
2023-03-17T21:15:36.062Z,17.20
2023-03-17T21:18:02.666Z,17.10
2023-03-17T21:20:29.550Z,17.20
2023-03-17T21:22:56.588Z,17.20
2023-03-17T21:25:23.361Z,17.20
2023-03-17T21:27:50.418Z,17.30
2023-03-17T21:30:17.334Z,17.10
2023-03-17T21:32:43.947Z,17.10
2023-03-17T21:35:10.597Z,17.20
2023-03-17T21:37:37.301Z,17.10
2023-03-17T21:40:07.405Z,17.10
2023-03-17T21:42:34.463Z,17.10
2023-03-17T21:45:01.157Z,17.10
2023-03-17T21:47:29.885Z,17.10
2023-03-17T21:49:58.012Z,18.40
2023-03-17T21:52:25.100Z,17.00
2023-03-17T21:54:51.709Z,17.00
2023-03-17T21:57:18.259Z,17.10
2023-03-17T21:59:45.536Z,17.00
2023-03-17T22:02:12.592Z,17.00
2023-03-17T22:04:39.604Z,17.20
2023-03-17T22:07:06.402Z,17.30
2023-03-17T22:09:33.313Z,17.00
2023-03-17T22:11:59.892Z,17.00
2023-03-17T22:14:26.955Z,17.00
2023-03-17T22:16:53.750Z,17.00
2023-03-17T22:19:21.398Z,17.00
2023-03-17T22:21:48.145Z,17.00
2023-03-17T22:24:14.798Z,17.70
2023-03-17T22:26:42.064Z,17.50
2023-03-17T22:29:08.710Z,17.00
2023-03-17T22:31:35.540Z,17.60
2023-03-17T22:34:02.476Z,17.10
2023-03-17T22:36:29.618Z,17.00
2023-03-17T22:38:56.631Z,17.00
2023-03-17T22:41:25.017Z,17.00
2023-03-17T22:43:51.640Z,17.00
2023-03-17T22:46:18.589Z,17.00
2023-03-17T22:48:46.304Z,16.90
2023-03-17T22:51:14.347Z,16.90
2023-03-17T22:53:41.203Z,17.00
2023-03-17T22:56:08.382Z,17.00
2023-03-17T22:58:35.041Z,17.00
2023-03-17T23:01:02.606Z,17.00
2023-03-17T23:03:29.339Z,17.10
2023-03-17T23:05:58.479Z,17.10
2023-03-17T23:08:26.076Z,17.20
2023-03-17T23:10:53.558Z,16.80
2023-03-17T23:13:20.659Z,17.20
2023-03-17T23:15:47.458Z,17.10
2023-03-17T23:18:14.249Z,17.10
2023-03-17T23:20:41.040Z,17.20
2023-03-17T23:23:08.440Z,17.30
2023-03-17T23:25:35.553Z,17.80
2023-03-17T23:28:02.710Z,17.10
2023-03-17T23:30:29.815Z,17.10
2023-03-17T23:32:57.001Z,17.10
2023-03-17T23:35:23.946Z,17.30
2023-03-17T23:37:50.798Z,17.10
2023-03-17T23:40:17.666Z,17.20
2023-03-17T23:42:45.043Z,17.10
2023-03-17T23:45:11.928Z,17.10
2023-03-17T23:47:38.780Z,17.00
2023-03-17T23:50:05.725Z,17.00
2023-03-17T23:52:32.673Z,17.00
2023-03-17T23:54:59.311Z,17.00
2023-03-17T23:57:26.027Z,17.00
2023-03-17T23:59:52.945Z,17.00
